Saga Morus — VRZQ8 — position and weather

sailwx.info

Track history (hours):
 
Tides and Currents Weather Stations Pressure Air Temp Water Temp Dewpoint Dewpoint Depression Visibility Wind Speed Wind Dir Waves Ship Positions

Saga Morus

Last reported at 2018-Jun-20 21:15 UTC. Time now 2018-Jun-25 00:42 UTC.
Position N 27°17' W 091°56'.

Length 200 m; draft 10.2 m.

Type: Cargo ship. MMSI: 477283000.

Date/timePositionNaut miles runAvg speedWind from/ knotsBaromVisibWave heightAir tempDewpointWater temp
2018-Jun-20 21:15N 27°17' W 091°56'12112.1
2018-Jun-20 11:17N 28°49' W 093°24'2511.2
2018-Jun-20 09:01N 29°11' W 093°40'112.0
2018-Jun-20 08:57N 29°11' W 093°40'511.7
2018-Jun-20 08:30N 29°17' W 093°40'611.5
2018-Jun-20 08:00N 29°22' W 093°41'4 8.3
2018-Jun-20 07:31N 29°26' W 093°40'4 7.9
2018-Jun-20 07:01N 29°30' W 093°41'611.6
2018-Jun-20 06:30N 29°34' W 093°46'510.4
2018-Jun-20 06:01N 29°39' W 093°49'510.5
2018-Jun-20 05:30N 29°43' W 093°52'4 8.5
2018-Jun-20 05:00N 29°46' W 093°56'4 7.7
2018-Jun-20 04:30N 29°50' W 093°58'4 8.3
2018-Jun-20 04:00N 29°53' W 093°55'4 7.9
2018-Jun-20 03:30N 29°56' W 093°52'3 5.6
2018-Jun-20 03:01N 29°59' W 093°53'4 7.1
2018-Jun-20 02:30N 29°60' W 093°57'2 4.5
2018-Jun-20 02:00N 30°01' W 093°59'3 5.2
2018-Jun-20 01:30N 30°02' W 094°02'2 4.1
2018-Jun-20 01:01N 30°04' W 094°02'0 0.0
2018-Jun-20 00:30N 30°04' W 094°02'0 0.0
2018-Jun-20 00:00N 30°04' W 094°02'0 0.0
2018-Jun-19 23:30N 30°04' W 094°02'0 0.0
2018-Jun-19 23:00N 30°04' W 094°02'0 0.0
2018-Jun-19 22:27N 30°04' W 094°02'0 0.0
2018-Jun-19 22:00N 30°04' W 094°02'0 0.0
2018-Jun-19 21:30N 30°04' W 094°02'0 0.0
2018-Jun-19 21:00N 30°04' W 094°02'0 0.0
2018-Jun-19 20:30N 30°04' W 094°02'0 0.0
2018-Jun-19 20:00N 30°04' W 094°02'0 0.0
2018-Jun-19 19:30N 30°04' W 094°02'0 0.0
2018-Jun-19 18:57N 30°04' W 094°02'0 0.0
2018-Jun-19 18:30N 30°04' W 094°02'0 0.0
2018-Jun-19 18:00N 30°04' W 094°02'0 0.0
2018-Jun-19 17:30N 30°04' W 094°02'0 0.0
2018-Jun-19 17:00N 30°04' W 094°02'0 0.0
2018-Jun-19 16:30N 30°04' W 094°02'0 0.0
2018-Jun-19 16:00N 30°04' W 094°02'0 0.0
2018-Jun-19 15:30N 30°04' W 094°02'0 0.0
2018-Jun-19 15:00N 30°04' W 094°02'0 0.0
2018-Jun-19 14:30N 30°04' W 094°02'0 0.0
2018-Jun-19 14:00N 30°04' W 094°02'0 0.0
2018-Jun-19 13:30N 30°04' W 094°02'0 0.0
2018-Jun-19 13:00N 30°04' W 094°02'0 0.0
2018-Jun-19 12:30N 30°04' W 094°02'0 0.0
2018-Jun-19 12:00N 30°04' W 094°02'0 0.0
2018-Jun-19 11:30N 30°04' W 094°02'0 0.0
2018-Jun-19 11:00N 30°04' W 094°02'0 0.0
2018-Jun-19 10:30N 30°04' W 094°02'0 0.0
2018-Jun-19 10:00N 30°04' W 094°02'0 0.0
2018-Jun-19 09:30N 30°04' W 094°02'0 0.0
2018-Jun-19 09:00N 30°04' W 094°02'0 0.0
2018-Jun-19 08:30N 30°04' W 094°02'0 0.0
2018-Jun-19 08:00N 30°04' W 094°02'0 0.0
2018-Jun-19 07:30N 30°04' W 094°02'0 0.0
2018-Jun-19 07:00N 30°04' W 094°02'0 0.0
2018-Jun-19 06:27N 30°04' W 094°02'0 0.0
2018-Jun-19 06:00N 30°04' W 094°02'0 0.0
2018-Jun-19 05:30N 30°04' W 094°02'0 0.0
2018-Jun-19 04:57N 30°04' W 094°02'0 0.0
2018-Jun-19 04:30N 30°04' W 094°02'0 0.0
2018-Jun-19 04:00N 30°04' W 094°02'0 0.0
2018-Jun-19 03:30N 30°04' W 094°02'0 0.0
2018-Jun-19 03:00N 30°04' W 094°02'0 0.0
2018-Jun-19 02:27N 30°04' W 094°02'0 0.0
2018-Jun-19 02:00N 30°04' W 094°02'0 0.0
2018-Jun-19 01:30N 30°04' W 094°02'0 0.0
2018-Jun-19 01:00N 30°04' W 094°02'0 0.0
2018-Jun-19 00:30N 30°04' W 094°02'0 0.0
2018-Jun-19 00:00N 30°04' W 094°02'0 0.0
2018-Jun-18 23:30N 30°04' W 094°02'0 0.0
2018-Jun-18 23:00N 30°04' W 094°02'0 0.0
2018-Jun-18 22:30N 30°04' W 094°02'0 0.0
2018-Jun-18 22:00N 30°04' W 094°02'0 0.0
2018-Jun-18 21:30N 30°04' W 094°02'0 0.0
2018-Jun-18 20:57N 30°04' W 094°02'0 0.0
2018-Jun-18 20:30N 30°04' W 094°02'0 0.0
2018-Jun-18 20:00N 30°04' W 094°02'0 0.0
2018-Jun-18 19:30N 30°04' W 094°02'0 0.0
2018-Jun-18 19:00N 30°04' W 094°02'0 0.0
2018-Jun-18 18:30N 30°04' W 094°02'0 0.0
2018-Jun-18 18:00N 30°04' W 094°02'0 0.0
2018-Jun-18 17:30N 30°04' W 094°02'0 0.0
2018-Jun-18 17:00N 30°04' W 094°02'0 0.0
2018-Jun-18 16:30N 30°04' W 094°02'0 0.0
2018-Jun-18 16:00N 30°04' W 094°02'0 0.0
2018-Jun-18 15:30N 30°04' W 094°02'0 0.0
2018-Jun-18 15:00N 30°04' W 094°02'0 0.0
2018-Jun-18 14:30N 30°04' W 094°02'0 0.0
2018-Jun-18 14:00N 30°04' W 094°02'0 0.0
2018-Jun-18 13:30N 30°04' W 094°02'0 0.0
2018-Jun-18 13:00N 30°04' W 094°02'0 0.0
2018-Jun-18 12:30N 30°04' W 094°02'0 0.0
2018-Jun-18 12:00N 30°04' W 094°02'0 0.0
2018-Jun-18 11:24N 30°04' W 094°02'0 0.0
2018-Jun-18 11:00N 30°04' W 094°02'0 0.0
2018-Jun-18 10:30N 30°04' W 094°02'0 0.0
2018-Jun-18 10:00N 30°04' W 094°02'0 0.0
2018-Jun-18 09:30N 30°04' W 094°02'0 0.0
2018-Jun-18 09:00N 30°04' W 094°02'0 0.0
2018-Jun-18 08:30N 30°04' W 094°02'0 0.0
2018-Jun-18 08:00N 30°04' W 094°02'0 0.0
2018-Jun-18 07:30N 30°04' W 094°02'0 0.0
2018-Jun-18 07:00N 30°04' W 094°02'0 0.0
2018-Jun-18 06:30N 30°04' W 094°02'0 0.0
2018-Jun-18 06:00N 30°04' W 094°02'0 0.0
2018-Jun-18 05:30N 30°04' W 094°02'0 0.0
2018-Jun-18 05:00N 30°04' W 094°02'0 0.0
2018-Jun-18 04:30N 30°04' W 094°02'0 0.0
2018-Jun-18 04:00N 30°04' W 094°02'0 0.0
2018-Jun-18 03:30N 30°04' W 094°02'0 0.0
2018-Jun-18 03:00N 30°04' W 094°02'0 0.0
2018-Jun-18 02:30N 30°04' W 094°02'0 0.0
2018-Jun-18 02:00N 30°04' W 094°02'0 0.0
2018-Jun-18 01:30N 30°04' W 094°02'0 0.0
2018-Jun-18 01:00N 30°04' W 094°02'0 0.0
2018-Jun-18 00:30N 30°04' W 094°02'0 0.0
2018-Jun-18 00:00N 30°04' W 094°02'0 0.0
2018-Jun-17 23:30N 30°04' W 094°02'0 0.0
2018-Jun-17 23:00N 30°04' W 094°02'0 0.0
2018-Jun-17 22:30N 30°04' W 094°02'0 0.0
2018-Jun-17 22:00N 30°04' W 094°02'0 0.0
2018-Jun-17 21:30N 30°04' W 094°02'0 0.0
2018-Jun-17 21:00N 30°04' W 094°02'0 0.0
2018-Jun-17 20:30N 30°04' W 094°02'0 0.0
2018-Jun-17 20:00N 30°04' W 094°02'0 0.0
2018-Jun-17 19:30N 30°04' W 094°02'0 0.0
2018-Jun-17 19:00N 30°04' W 094°02'0 0.0
2018-Jun-17 18:30N 30°04' W 094°02'0 0.0
2018-Jun-17 18:00N 30°04' W 094°02'0 0.0
2018-Jun-17 17:30N 30°04' W 094°02'0 0.0
2018-Jun-17 17:00N 30°04' W 094°02'0 0.0
2018-Jun-17 16:30N 30°04' W 094°02'0 0.0
2018-Jun-17 16:00N 30°04' W 094°02'0 0.0
2018-Jun-17 15:30N 30°04' W 094°02'0 0.0
2018-Jun-17 15:00N 30°04' W 094°02'0 0.0
2018-Jun-17 14:30N 30°04' W 094°02'0 0.0
2018-Jun-17 14:00N 30°04' W 094°02'0 0.0
2018-Jun-17 13:30N 30°04' W 094°02'0 0.0
2018-Jun-17 13:00N 30°04' W 094°02'0 0.0
2018-Jun-17 12:30N 30°04' W 094°02'0 0.0
2018-Jun-17 12:00N 30°04' W 094°02'0 0.0
2018-Jun-17 11:30N 30°04' W 094°02'0 0.0
2018-Jun-17 11:00N 30°04' W 094°02'0 0.0
2018-Jun-17 10:30N 30°04' W 094°02'0 0.0
2018-Jun-17 10:00N 30°04' W 094°02'0 0.0
2018-Jun-17 09:30N 30°04' W 094°02'0 0.0
2018-Jun-17 09:00N 30°04' W 094°02'0 0.0
2018-Jun-17 08:30N 30°04' W 094°02'0 0.0
2018-Jun-17 08:00N 30°04' W 094°02'0 0.0
2018-Jun-17 07:30N 30°04' W 094°02'0 0.0
2018-Jun-17 07:00N 30°04' W 094°02'0 0.0
2018-Jun-17 06:30N 30°04' W 094°02'0 0.0
2018-Jun-17 06:00N 30°04' W 094°02'0 0.0
2018-Jun-17 05:30N 30°04' W 094°02'0 0.0
2018-Jun-17 05:00N 30°04' W 094°02'0 0.0
2018-Jun-17 04:30N 30°04' W 094°02'0 0.0
2018-Jun-17 04:00N 30°04' W 094°02'0 0.0
2018-Jun-17 03:30N 30°04' W 094°02'0 0.0
2018-Jun-17 03:00N 30°04' W 094°02'0 0.0
2018-Jun-17 02:30N 30°04' W 094°02'0 0.0
2018-Jun-17 02:00N 30°04' W 094°02'0 0.0
2018-Jun-17 01:30N 30°04' W 094°02'0 0.0
2018-Jun-17 01:00N 30°04' W 094°02'0 0.0
2018-Jun-17 00:30N 30°04' W 094°02'0 0.0
2018-Jun-17 00:00N 30°04' W 094°02'0 0.0
2018-Jun-16 23:30N 30°04' W 094°02'0 0.0
2018-Jun-16 22:57N 30°04' W 094°02'0 0.0
2018-Jun-16 22:30N 30°04' W 094°02'0 0.0
2018-Jun-16 22:00N 30°04' W 094°02'0 0.0
2018-Jun-16 21:30N 30°04' W 094°02'0 0.0
2018-Jun-16 21:00N 30°04' W 094°02'0 0.0
2018-Jun-16 20:27N 30°04' W 094°02'0 0.0
2018-Jun-16 20:00N 30°04' W 094°02'0 0.0
2018-Jun-16 19:30N 30°04' W 094°02'0 0.0
2018-Jun-16 19:00N 30°04' W 094°02'0 0.0
2018-Jun-16 18:30N 30°04' W 094°02'0 0.0
2018-Jun-16 18:00N 30°04' W 094°02'0 0.0
2018-Jun-16 17:30N 30°04' W 094°02'0 0.0
2018-Jun-16 17:00N 30°04' W 094°02'0 0.0
2018-Jun-16 16:30N 30°04' W 094°02'0 0.0
2018-Jun-16 16:00N 30°04' W 094°02'0 0.0
2018-Jun-16 15:30N 30°04' W 094°02'0 0.0
2018-Jun-16 15:00N 30°04' W 094°02'0 0.0
2018-Jun-16 14:30N 30°04' W 094°02'0 0.0
2018-Jun-16 14:00N 30°04' W 094°02'0 0.0
2018-Jun-16 13:30N 30°04' W 094°02'0 0.0
2018-Jun-16 13:00N 30°04' W 094°02'0 0.0
2018-Jun-16 12:30N 30°04' W 094°02'0 0.0
2018-Jun-16 12:00N 30°04' W 094°02'0 0.0
2018-Jun-16 11:30N 30°04' W 094°02'0 0.0
2018-Jun-16 11:00N 30°04' W 094°02'0 0.0
2018-Jun-16 10:30N 30°04' W 094°02'0 0.0
2018-Jun-16 10:00N 30°04' W 094°02'0 0.0
2018-Jun-16 09:30N 30°04' W 094°02'0 0.0
2018-Jun-16 09:00N 30°04' W 094°02'0 0.0
2018-Jun-16 08:30N 30°04' W 094°02'0 0.0
2018-Jun-16 08:00N 30°04' W 094°02'0 0.0
2018-Jun-16 07:30N 30°04' W 094°02'0 0.0
2018-Jun-16 07:00N 30°04' W 094°02'0 0.0
2018-Jun-16 06:30N 30°04' W 094°02'0 0.0
2018-Jun-16 06:00N 30°04' W 094°02'0 0.0
2018-Jun-16 05:30N 30°04' W 094°02'0 0.0
2018-Jun-16 05:00N 30°04' W 094°02'0 0.0
2018-Jun-16 04:30N 30°04' W 094°02'0 0.0
2018-Jun-16 04:00N 30°04' W 094°02'0 0.0
2018-Jun-16 03:30N 30°04' W 094°02'0 0.0
2018-Jun-16 03:00N 30°04' W 094°02'0 0.0
2018-Jun-16 02:30N 30°04' W 094°02'0 0.0
2018-Jun-16 02:00N 30°04' W 094°02'0 0.0
2018-Jun-16 01:30N 30°04' W 094°02'0 0.0
2018-Jun-16 01:00N 30°04' W 094°02'0 0.0
2018-Jun-16 00:30N 30°04' W 094°02'0 0.0
2018-Jun-16 00:00N 30°04' W 094°02'0 0.0
2018-Jun-15 23:30N 30°04' W 094°02'0 0.0
2018-Jun-15 23:00N 30°04' W 094°02'0 0.0
2018-Jun-15 22:30N 30°04' W 094°02'0 0.0
2018-Jun-15 22:00N 30°04' W 094°02'0 0.0
2018-Jun-15 21:30N 30°04' W 094°02'0 0.0
2018-Jun-15 20:57N 30°04' W 094°02'0 0.0
2018-Jun-15 20:30N 30°04' W 094°02'0 0.0
2018-Jun-15 20:00N 30°04' W 094°02'0 0.0
2018-Jun-15 19:30N 30°04' W 094°02'0 0.0
2018-Jun-15 19:00N 30°04' W 094°02'0 0.0
2018-Jun-15 18:30N 30°04' W 094°02'0 0.0
2018-Jun-15 18:00N 30°04' W 094°02'0 0.0
2018-Jun-15 17:30N 30°04' W 094°02'0 0.0
2018-Jun-15 17:00N 30°04' W 094°02'0 0.0
2018-Jun-15 16:30N 30°04' W 094°02'0 0.0
2018-Jun-15 16:00N 30°04' W 094°02'0 0.0
2018-Jun-15 15:30N 30°04' W 094°02'0 0.0
2018-Jun-15 15:00N 30°04' W 094°02'0 0.0
2018-Jun-15 14:30N 30°04' W 094°02'0 0.0
2018-Jun-15 14:00N 30°04' W 094°02'0 0.0
2018-Jun-15 13:30N 30°04' W 094°02'0 0.0
2018-Jun-15 13:00N 30°04' W 094°02'0 0.0
2018-Jun-15 12:30N 30°04' W 094°02'0 0.0
2018-Jun-15 12:00N 30°04' W 094°02'0 0.0
2018-Jun-15 11:30N 30°04' W 094°02'0 0.0
2018-Jun-15 11:00N 30°04' W 094°02'0 0.0
2018-Jun-15 10:30N 30°04' W 094°02'0 0.0
2018-Jun-15 10:00N 30°04' W 094°02'0 0.0
2018-Jun-15 09:30N 30°04' W 094°02'0 0.0
2018-Jun-15 09:00N 30°04' W 094°02'0 0.0
2018-Jun-15 08:30N 30°04' W 094°02'0 0.0
2018-Jun-15 08:00N 30°04' W 094°02'0 0.0
2018-Jun-15 07:30N 30°04' W 094°02'0 0.0
2018-Jun-15 07:00N 30°04' W 094°02'0 0.0
2018-Jun-15 06:24N 30°04' W 094°02'0 0.0
2018-Jun-15 06:00N 30°04' W 094°02'0 0.0
2018-Jun-15 05:30N 30°04' W 094°02'0 0.0
2018-Jun-15 04:57N 30°04' W 094°02'0 0.0
2018-Jun-15 04:30N 30°04' W 094°02'0 0.0
2018-Jun-15 04:00N 30°04' W 094°02'0 0.0
2018-Jun-15 03:30N 30°04' W 094°02'0 0.0
2018-Jun-15 03:00N 30°04' W 094°02'0 0.0
2018-Jun-15 02:30N 30°04' W 094°02'0 0.0
2018-Jun-15 02:00N 30°04' W 094°02'0 0.0
2018-Jun-15 01:30N 30°04' W 094°02'0 0.0
2018-Jun-15 01:00N 30°04' W 094°02'0 0.0
2018-Jun-15 00:30N 30°04' W 094°02'0 0.0
2018-Jun-15 00:00N 30°04' W 094°02'0 0.0
2018-Jun-14 23:30N 30°04' W 094°02'0 0.0
2018-Jun-14 23:00N 30°04' W 094°02'0 0.0
2018-Jun-14 22:30N 30°04' W 094°02'0 0.0
2018-Jun-14 22:00N 30°04' W 094°02'0 0.0
2018-Jun-14 21:30N 30°04' W 094°02'0 0.0
2018-Jun-14 21:00N 30°04' W 094°02'0 0.0
2018-Jun-14 20:30N 30°04' W 094°02'0 0.0
2018-Jun-14 20:00N 30°04' W 094°02'0 0.0
2018-Jun-14 19:30N 30°04' W 094°02'0 0.0
2018-Jun-14 19:00N 30°04' W 094°02'0 0.0
2018-Jun-14 18:30N 30°04' W 094°02'0 0.0
2018-Jun-14 18:00N 30°04' W 094°02'0 0.0
2018-Jun-14 17:30N 30°04' W 094°02'0 0.0
2018-Jun-14 17:00N 30°04' W 094°02'0 0.0
2018-Jun-14 16:30N 30°04' W 094°02'0 0.0
2018-Jun-14 16:00N 30°04' W 094°02'0 0.0
2018-Jun-14 15:30N 30°04' W 094°02'0 0.0
2018-Jun-14 15:00N 30°04' W 094°02'0 0.0
2018-Jun-14 14:30N 30°04' W 094°02'0 0.0
2018-Jun-14 14:00N 30°04' W 094°02'0 0.0
2018-Jun-14 13:30N 30°04' W 094°02'0 0.0
2018-Jun-14 13:00N 30°04' W 094°02'0 0.0
2018-Jun-14 12:30N 30°04' W 094°02'0 0.0
2018-Jun-14 12:00N 30°04' W 094°02'0 0.0
2018-Jun-14 11:30N 30°04' W 094°02'0 0.0
2018-Jun-14 11:00N 30°04' W 094°02'0 0.0
2018-Jun-14 10:30N 30°04' W 094°02'0 0.0
2018-Jun-14 10:00N 30°04' W 094°02'0 0.0
2018-Jun-14 09:30N 30°04' W 094°02'0 0.0
2018-Jun-14 09:00N 30°04' W 094°02'0 0.0
2018-Jun-14 08:30N 30°04' W 094°02'0 0.0
2018-Jun-14 08:00N 30°04' W 094°02'0 0.0
2018-Jun-14 07:30N 30°04' W 094°02'0 0.0
2018-Jun-14 07:00N 30°04' W 094°02'0 0.0
2018-Jun-14 06:30N 30°04' W 094°02'0 0.0
2018-Jun-14 06:00N 30°04' W 094°02'0 0.0
2018-Jun-14 05:30N 30°04' W 094°02'0 0.0
2018-Jun-14 05:00N 30°04' W 094°02'0 0.0
2018-Jun-14 04:30N 30°04' W 094°02'0 0.0
2018-Jun-14 04:00N 30°04' W 094°02'0 0.0
2018-Jun-14 03:30N 30°04' W 094°02'0 0.0
2018-Jun-14 03:00N 30°04' W 094°02'0 0.0
2018-Jun-14 02:30N 30°04' W 094°02'0 0.0
2018-Jun-14 02:00N 30°04' W 094°02'0 0.0
2018-Jun-14 01:30N 30°04' W 094°02'0 0.0
2018-Jun-14 01:00N 30°04' W 094°02'0 0.0
2018-Jun-14 00:31N 30°04' W 094°02'1 2.7
2018-Jun-14 00:01N 30°05' W 094°04'1 1.5
2018-Jun-13 23:30N 30°05' W 094°04'3 6.4
2018-Jun-13 23:01N 30°02' W 094°02'3 5.5
2018-Jun-13 22:30N 30°01' W 093°59'3 5.8
2018-Jun-13 22:00N 29°60' W 093°56'4 7.6
2018-Jun-13 21:30N 29°59' W 093°52'4 7.7
2018-Jun-13 21:01N 29°55' W 093°53'4 8.8
2018-Jun-13 20:30N 29°52' W 093°56'3 6.6
2018-Jun-13 20:01N 29°48' W 093°57'4 8.8
2018-Jun-13 19:30N 29°45' W 093°54'5 9.2
2018-Jun-13 19:01N 29°42' W 093°50'612.2
2018-Jun-13 18:30N 29°36' W 093°48'713.0
2018-Jun-13 18:01N 29°31' W 093°43'612.0
2018-Jun-13 17:30N 29°26' W 093°40'4 7.6
2018-Jun-13 16:59N 29°22' W 093°40'6 5.3
2018-Jun-13 15:52N 29°16' W 093°42'0 0.0
2018-Jun-13 08:52N 29°16' W 093°42'0 0.0
2018-Jun-13 08:22N 29°16' W 093°42'0 0.0
2018-Jun-13 07:52N 29°16' W 093°42'0 0.0
2018-Jun-13 07:22N 29°16' W 093°42'0 0.0
2018-Jun-13 06:58N 29°16' W 093°42'0 0.0
2018-Jun-13 06:22N 29°16' W 093°42'0 0.0
2018-Jun-13 05:55N 29°16' W 093°42'0 0.0
2018-Jun-13 05:10N 29°16' W 093°42'0 0.0
2018-Jun-13 04:49N 29°16' W 093°42'0 0.0
2018-Jun-13 04:07N 29°16' W 093°42'0 0.0
2018-Jun-13 03:55N 29°16' W 093°42'0 0.0
2018-Jun-13 03:22N 29°16' W 093°42'0 0.0
2018-Jun-13 02:58N 29°16' W 093°42'0 0.0
2018-Jun-13 02:28N 29°16' W 093°42'0 0.0
2018-Jun-13 01:37N 29°16' W 093°42'0 0.0
2018-Jun-13 01:10N 29°16' W 093°42'0 0.0
2018-Jun-12 22:25N 29°16' W 093°42'0 0.0
2018-Jun-12 21:52N 29°16' W 093°42'0 0.0
2018-Jun-12 21:16N 29°16' W 093°42'0 0.0
2018-Jun-12 20:34N 29°16' W 093°42'0 0.1
2018-Jun-12 20:22N 29°16' W 093°42'0 0.0
2018-Jun-12 19:55N 29°16' W 093°42'0 0.0
2018-Jun-12 19:19N 29°16' W 093°42'0 0.0
2018-Jun-12 18:49N 29°16' W 093°42'0 0.0
2018-Jun-12 18:19N 29°16' W 093°42'0 0.0
2018-Jun-12 17:58N 29°16' W 093°42'0 0.0
2018-Jun-12 17:30N 29°16' W 093°42'1 2.0
2018-Jun-12 16:50N 29°16' W 093°41'2 6.0
2018-Jun-12 16:30N 29°14' W 093°40'3 6.7
2018-Jun-12 15:59N 29°10' W 093°40'811.4
2018-Jun-12 15:17N 29°03' W 093°36'512.7
2018-Jun-12 14:54N 28°59' W 093°32'512.8
2018-Jun-12 14:30N 28°55' W 093°28'612.9
2018-Jun-12 14:00N 28°50' W 093°24'813.0
2018-Jun-12 13:22N 28°43' W 093°19'  
Track history (hours):
 
Tides and Currents Weather Stations Pressure Air Temp Water Temp Dewpoint Dewpoint Depression Visibility Wind Speed Wind Dir Waves Ship Positions

Saga Morus

Last reported at 2018-Jun-20 21:15 UTC. Time now 2018-Jun-25 00:42 UTC.
Position N 27°17' W 091°56'.

Length 200 m; draft 10.2 m.

Type: Cargo ship. MMSI: 477283000.

Date/timePositionNaut miles runAvg speedWind from/ knotsBaromVisibWave heightAir tempDewpointWater temp
2018-Jun-20 21:15N 27°17' W 091°56'12112.1
2018-Jun-20 11:17N 28°49' W 093°24'2511.2
2018-Jun-20 09:01N 29°11' W 093°40'112.0
2018-Jun-20 08:57N 29°11' W 093°40'511.7
2018-Jun-20 08:30N 29°17' W 093°40'611.5
2018-Jun-20 08:00N 29°22' W 093°41'4 8.3
2018-Jun-20 07:31N 29°26' W 093°40'4 7.9
2018-Jun-20 07:01N 29°30' W 093°41'611.6
2018-Jun-20 06:30N 29°34' W 093°46'510.4
2018-Jun-20 06:01N 29°39' W 093°49'510.5
2018-Jun-20 05:30N 29°43' W 093°52'4 8.5
2018-Jun-20 05:00N 29°46' W 093°56'4 7.7
2018-Jun-20 04:30N 29°50' W 093°58'4 8.3
2018-Jun-20 04:00N 29°53' W 093°55'4 7.9
2018-Jun-20 03:30N 29°56' W 093°52'3 5.6
2018-Jun-20 03:01N 29°59' W 093°53'4 7.1
2018-Jun-20 02:30N 29°60' W 093°57'2 4.5
2018-Jun-20 02:00N 30°01' W 093°59'3 5.2
2018-Jun-20 01:30N 30°02' W 094°02'2 4.1
2018-Jun-20 01:01N 30°04' W 094°02'0 0.0
2018-Jun-20 00:30N 30°04' W 094°02'0 0.0
2018-Jun-20 00:00N 30°04' W 094°02'0 0.0
2018-Jun-19 23:30N 30°04' W 094°02'0 0.0
2018-Jun-19 23:00N 30°04' W 094°02'0 0.0
2018-Jun-19 22:27N 30°04' W 094°02'0 0.0
2018-Jun-19 22:00N 30°04' W 094°02'0 0.0
2018-Jun-19 21:30N 30°04' W 094°02'0 0.0
2018-Jun-19 21:00N 30°04' W 094°02'0 0.0
2018-Jun-19 20:30N 30°04' W 094°02'0 0.0
2018-Jun-19 20:00N 30°04' W 094°02'0 0.0
2018-Jun-19 19:30N 30°04' W 094°02'0 0.0
2018-Jun-19 18:57N 30°04' W 094°02'0 0.0
2018-Jun-19 18:30N 30°04' W 094°02'0 0.0
2018-Jun-19 18:00N 30°04' W 094°02'0 0.0
2018-Jun-19 17:30N 30°04' W 094°02'0 0.0
2018-Jun-19 17:00N 30°04' W 094°02'0 0.0
2018-Jun-19 16:30N 30°04' W 094°02'0 0.0
2018-Jun-19 16:00N 30°04' W 094°02'0 0.0
2018-Jun-19 15:30N 30°04' W 094°02'0 0.0
2018-Jun-19 15:00N 30°04' W 094°02'0 0.0
2018-Jun-19 14:30N 30°04' W 094°02'0 0.0
2018-Jun-19 14:00N 30°04' W 094°02'0 0.0
2018-Jun-19 13:30N 30°04' W 094°02'0 0.0
2018-Jun-19 13:00N 30°04' W 094°02'0 0.0
2018-Jun-19 12:30N 30°04' W 094°02'0 0.0
2018-Jun-19 12:00N 30°04' W 094°02'0 0.0
2018-Jun-19 11:30N 30°04' W 094°02'0 0.0
2018-Jun-19 11:00N 30°04' W 094°02'0 0.0
2018-Jun-19 10:30N 30°04' W 094°02'0 0.0
2018-Jun-19 10:00N 30°04' W 094°02'0 0.0
2018-Jun-19 09:30N 30°04' W 094°02'0 0.0
2018-Jun-19 09:00N 30°04' W 094°02'0 0.0
2018-Jun-19 08:30N 30°04' W 094°02'0 0.0
2018-Jun-19 08:00N 30°04' W 094°02'0 0.0
2018-Jun-19 07:30N 30°04' W 094°02'0 0.0
2018-Jun-19 07:00N 30°04' W 094°02'0 0.0
2018-Jun-19 06:27N 30°04' W 094°02'0 0.0
2018-Jun-19 06:00N 30°04' W 094°02'0 0.0
2018-Jun-19 05:30N 30°04' W 094°02'0 0.0
2018-Jun-19 04:57N 30°04' W 094°02'0 0.0
2018-Jun-19 04:30N 30°04' W 094°02'0 0.0
2018-Jun-19 04:00N 30°04' W 094°02'0 0.0
2018-Jun-19 03:30N 30°04' W 094°02'0 0.0
2018-Jun-19 03:00N 30°04' W 094°02'0 0.0
2018-Jun-19 02:27N 30°04' W 094°02'0 0.0
2018-Jun-19 02:00N 30°04' W 094°02'0 0.0
2018-Jun-19 01:30N 30°04' W 094°02'0 0.0
2018-Jun-19 01:00N 30°04' W 094°02'0 0.0
2018-Jun-19 00:30N 30°04' W 094°02'0 0.0
2018-Jun-19 00:00N 30°04' W 094°02'0 0.0
2018-Jun-18 23:30N 30°04' W 094°02'0 0.0
2018-Jun-18 23:00N 30°04' W 094°02'0 0.0
2018-Jun-18 22:30N 30°04' W 094°02'0 0.0
2018-Jun-18 22:00N 30°04' W 094°02'0 0.0
2018-Jun-18 21:30N 30°04' W 094°02'0 0.0
2018-Jun-18 20:57N 30°04' W 094°02'0 0.0
2018-Jun-18 20:30N 30°04' W 094°02'0 0.0
2018-Jun-18 20:00N 30°04' W 094°02'0 0.0
2018-Jun-18 19:30N 30°04' W 094°02'0 0.0
2018-Jun-18 19:00N 30°04' W 094°02'0 0.0
2018-Jun-18 18:30N 30°04' W 094°02'0 0.0
2018-Jun-18 18:00N 30°04' W 094°02'0 0.0
2018-Jun-18 17:30N 30°04' W 094°02'0 0.0
2018-Jun-18 17:00N 30°04' W 094°02'0 0.0
2018-Jun-18 16:30N 30°04' W 094°02'0 0.0
2018-Jun-18 16:00N 30°04' W 094°02'0 0.0
2018-Jun-18 15:30N 30°04' W 094°02'0 0.0
2018-Jun-18 15:00N 30°04' W 094°02'0 0.0
2018-Jun-18 14:30N 30°04' W 094°02'0 0.0
2018-Jun-18 14:00N 30°04' W 094°02'0 0.0
2018-Jun-18 13:30N 30°04' W 094°02'0 0.0
2018-Jun-18 13:00N 30°04' W 094°02'0 0.0
2018-Jun-18 12:30N 30°04' W 094°02'0 0.0
2018-Jun-18 12:00N 30°04' W 094°02'0 0.0
2018-Jun-18 11:24N 30°04' W 094°02'0 0.0
2018-Jun-18 11:00N 30°04' W 094°02'0 0.0
2018-Jun-18 10:30N 30°04' W 094°02'0 0.0
2018-Jun-18 10:00N 30°04' W 094°02'0 0.0
2018-Jun-18 09:30N 30°04' W 094°02'0 0.0
2018-Jun-18 09:00N 30°04' W 094°02'0 0.0
2018-Jun-18 08:30N 30°04' W 094°02'0 0.0
2018-Jun-18 08:00N 30°04' W 094°02'0 0.0
2018-Jun-18 07:30N 30°04' W 094°02'0 0.0
2018-Jun-18 07:00N 30°04' W 094°02'0 0.0
2018-Jun-18 06:30N 30°04' W 094°02'0 0.0
2018-Jun-18 06:00N 30°04' W 094°02'0 0.0
2018-Jun-18 05:30N 30°04' W 094°02'0 0.0
2018-Jun-18 05:00N 30°04' W 094°02'0 0.0
2018-Jun-18 04:30N 30°04' W 094°02'0 0.0
2018-Jun-18 04:00N 30°04' W 094°02'0 0.0
2018-Jun-18 03:30N 30°04' W 094°02'0 0.0
2018-Jun-18 03:00N 30°04' W 094°02'0 0.0
2018-Jun-18 02:30N 30°04' W 094°02'0 0.0
2018-Jun-18 02:00N 30°04' W 094°02'0 0.0
2018-Jun-18 01:30N 30°04' W 094°02'0 0.0
2018-Jun-18 01:00N 30°04' W 094°02'0 0.0
2018-Jun-18 00:30N 30°04' W 094°02'0 0.0
2018-Jun-18 00:00N 30°04' W 094°02'0 0.0
2018-Jun-17 23:30N 30°04' W 094°02'0 0.0
2018-Jun-17 23:00N 30°04' W 094°02'0 0.0
2018-Jun-17 22:30N 30°04' W 094°02'0 0.0
2018-Jun-17 22:00N 30°04' W 094°02'0 0.0
2018-Jun-17 21:30N 30°04' W 094°02'0 0.0
2018-Jun-17 21:00N 30°04' W 094°02'0 0.0
2018-Jun-17 20:30N 30°04' W 094°02'0 0.0
2018-Jun-17 20:00N 30°04' W 094°02'0 0.0
2018-Jun-17 19:30N 30°04' W 094°02'0 0.0
2018-Jun-17 19:00N 30°04' W 094°02'0 0.0
2018-Jun-17 18:30N 30°04' W 094°02'0 0.0
2018-Jun-17 18:00N 30°04' W 094°02'0 0.0
2018-Jun-17 17:30N 30°04' W 094°02'0 0.0
2018-Jun-17 17:00N 30°04' W 094°02'0 0.0
2018-Jun-17 16:30N 30°04' W 094°02'0 0.0
2018-Jun-17 16:00N 30°04' W 094°02'0 0.0
2018-Jun-17 15:30N 30°04' W 094°02'0 0.0
2018-Jun-17 15:00N 30°04' W 094°02'0 0.0
2018-Jun-17 14:30N 30°04' W 094°02'0 0.0
2018-Jun-17 14:00N 30°04' W 094°02'0 0.0
2018-Jun-17 13:30N 30°04' W 094°02'0 0.0
2018-Jun-17 13:00N 30°04' W 094°02'0 0.0
2018-Jun-17 12:30N 30°04' W 094°02'0 0.0
2018-Jun-17 12:00N 30°04' W 094°02'0 0.0
2018-Jun-17 11:30N 30°04' W 094°02'0 0.0
2018-Jun-17 11:00N 30°04' W 094°02'0 0.0
2018-Jun-17 10:30N 30°04' W 094°02'0 0.0
2018-Jun-17 10:00N 30°04' W 094°02'0 0.0
2018-Jun-17 09:30N 30°04' W 094°02'0 0.0
2018-Jun-17 09:00N 30°04' W 094°02'0 0.0
2018-Jun-17 08:30N 30°04' W 094°02'0 0.0
2018-Jun-17 08:00N 30°04' W 094°02'0 0.0
2018-Jun-17 07:30N 30°04' W 094°02'0 0.0
2018-Jun-17 07:00N 30°04' W 094°02'0 0.0
2018-Jun-17 06:30N 30°04' W 094°02'0 0.0
2018-Jun-17 06:00N 30°04' W 094°02'0 0.0
2018-Jun-17 05:30N 30°04' W 094°02'0 0.0
2018-Jun-17 05:00N 30°04' W 094°02'0 0.0
2018-Jun-17 04:30N 30°04' W 094°02'0 0.0
2018-Jun-17 04:00N 30°04' W 094°02'0 0.0
2018-Jun-17 03:30N 30°04' W 094°02'0 0.0
2018-Jun-17 03:00N 30°04' W 094°02'0 0.0
2018-Jun-17 02:30N 30°04' W 094°02'0 0.0
2018-Jun-17 02:00N 30°04' W 094°02'0 0.0
2018-Jun-17 01:30N 30°04' W 094°02'0 0.0
2018-Jun-17 01:00N 30°04' W 094°02'0 0.0
2018-Jun-17 00:30N 30°04' W 094°02'0 0.0
2018-Jun-17 00:00N 30°04' W 094°02'0 0.0
2018-Jun-16 23:30N 30°04' W 094°02'0 0.0
2018-Jun-16 22:57N 30°04' W 094°02'0 0.0
2018-Jun-16 22:30N 30°04' W 094°02'0 0.0
2018-Jun-16 22:00N 30°04' W 094°02'0 0.0
2018-Jun-16 21:30N 30°04' W 094°02'0 0.0
2018-Jun-16 21:00N 30°04' W 094°02'0 0.0
2018-Jun-16 20:27N 30°04' W 094°02'0 0.0
2018-Jun-16 20:00N 30°04' W 094°02'0 0.0
2018-Jun-16 19:30N 30°04' W 094°02'0 0.0
2018-Jun-16 19:00N 30°04' W 094°02'0 0.0
2018-Jun-16 18:30N 30°04' W 094°02'0 0.0
2018-Jun-16 18:00N 30°04' W 094°02'0 0.0
2018-Jun-16 17:30N 30°04' W 094°02'0 0.0
2018-Jun-16 17:00N 30°04' W 094°02'0 0.0
2018-Jun-16 16:30N 30°04' W 094°02'0 0.0
2018-Jun-16 16:00N 30°04' W 094°02'0 0.0
2018-Jun-16 15:30N 30°04' W 094°02'0 0.0
2018-Jun-16 15:00N 30°04' W 094°02'0 0.0
2018-Jun-16 14:30N 30°04' W 094°02'0 0.0
2018-Jun-16 14:00N 30°04' W 094°02'0 0.0
2018-Jun-16 13:30N 30°04' W 094°02'0 0.0
2018-Jun-16 13:00N 30°04' W 094°02'0 0.0
2018-Jun-16 12:30N 30°04' W 094°02'0 0.0
2018-Jun-16 12:00N 30°04' W 094°02'0 0.0
2018-Jun-16 11:30N 30°04' W 094°02'0 0.0
2018-Jun-16 11:00N 30°04' W 094°02'0 0.0
2018-Jun-16 10:30N 30°04' W 094°02'0 0.0
2018-Jun-16 10:00N 30°04' W 094°02'0 0.0
2018-Jun-16 09:30N 30°04' W 094°02'0 0.0
2018-Jun-16 09:00N 30°04' W 094°02'0 0.0
2018-Jun-16 08:30N 30°04' W 094°02'0 0.0
2018-Jun-16 08:00N 30°04' W 094°02'0 0.0
2018-Jun-16 07:30N 30°04' W 094°02'0 0.0
2018-Jun-16 07:00N 30°04' W 094°02'0 0.0
2018-Jun-16 06:30N 30°04' W 094°02'0 0.0
2018-Jun-16 06:00N 30°04' W 094°02'0 0.0
2018-Jun-16 05:30N 30°04' W 094°02'0 0.0
2018-Jun-16 05:00N 30°04' W 094°02'0 0.0
2018-Jun-16 04:30N 30°04' W 094°02'0 0.0
2018-Jun-16 04:00N 30°04' W 094°02'0 0.0
2018-Jun-16 03:30N 30°04' W 094°02'0 0.0
2018-Jun-16 03:00N 30°04' W 094°02'0 0.0
2018-Jun-16 02:30N 30°04' W 094°02'0 0.0
2018-Jun-16 02:00N 30°04' W 094°02'0 0.0
2018-Jun-16 01:30N 30°04' W 094°02'0 0.0
2018-Jun-16 01:00N 30°04' W 094°02'0 0.0
2018-Jun-16 00:30N 30°04' W 094°02'0 0.0
2018-Jun-16 00:00N 30°04' W 094°02'0 0.0
2018-Jun-15 23:30N 30°04' W 094°02'0 0.0
2018-Jun-15 23:00N 30°04' W 094°02'0 0.0
2018-Jun-15 22:30N 30°04' W 094°02'0 0.0
2018-Jun-15 22:00N 30°04' W 094°02'0 0.0
2018-Jun-15 21:30N 30°04' W 094°02'0 0.0
2018-Jun-15 20:57N 30°04' W 094°02'0 0.0
2018-Jun-15 20:30N 30°04' W 094°02'0 0.0
2018-Jun-15 20:00N 30°04' W 094°02'0 0.0
2018-Jun-15 19:30N 30°04' W 094°02'0 0.0
2018-Jun-15 19:00N 30°04' W 094°02'0 0.0
2018-Jun-15 18:30N 30°04' W 094°02'0 0.0
2018-Jun-15 18:00N 30°04' W 094°02'0 0.0
2018-Jun-15 17:30N 30°04' W 094°02'0 0.0
2018-Jun-15 17:00N 30°04' W 094°02'0 0.0
2018-Jun-15 16:30N 30°04' W 094°02'0 0.0
2018-Jun-15 16:00N 30°04' W 094°02'0 0.0
2018-Jun-15 15:30N 30°04' W 094°02'0 0.0
2018-Jun-15 15:00N 30°04' W 094°02'0 0.0
2018-Jun-15 14:30N 30°04' W 094°02'0 0.0
2018-Jun-15 14:00N 30°04' W 094°02'0 0.0
2018-Jun-15 13:30N 30°04' W 094°02'0 0.0
2018-Jun-15 13:00N 30°04' W 094°02'0 0.0
2018-Jun-15 12:30N 30°04' W 094°02'0 0.0
2018-Jun-15 12:00N 30°04' W 094°02'0 0.0
2018-Jun-15 11:30N 30°04' W 094°02'0 0.0
2018-Jun-15 11:00N 30°04' W 094°02'0 0.0
2018-Jun-15 10:30N 30°04' W 094°02'0 0.0
2018-Jun-15 10:00N 30°04' W 094°02'0 0.0
2018-Jun-15 09:30N 30°04' W 094°02'0 0.0
2018-Jun-15 09:00N 30°04' W 094°02'0 0.0
2018-Jun-15 08:30N 30°04' W 094°02'0 0.0
2018-Jun-15 08:00N 30°04' W 094°02'0 0.0
2018-Jun-15 07:30N 30°04' W 094°02'0 0.0
2018-Jun-15 07:00N 30°04' W 094°02'0 0.0
2018-Jun-15 06:24N 30°04' W 094°02'0 0.0
2018-Jun-15 06:00N 30°04' W 094°02'0 0.0
2018-Jun-15 05:30N 30°04' W 094°02'0 0.0
2018-Jun-15 04:57N 30°04' W 094°02'0 0.0
2018-Jun-15 04:30N 30°04' W 094°02'0 0.0
2018-Jun-15 04:00N 30°04' W 094°02'0 0.0
2018-Jun-15 03:30N 30°04' W 094°02'0 0.0
2018-Jun-15 03:00N 30°04' W 094°02'0 0.0
2018-Jun-15 02:30N 30°04' W 094°02'0 0.0
2018-Jun-15 02:00N 30°04' W 094°02'0 0.0
2018-Jun-15 01:30N 30°04' W 094°02'0 0.0
2018-Jun-15 01:00N 30°04' W 094°02'0 0.0
2018-Jun-15 00:30N 30°04' W 094°02'0 0.0
2018-Jun-15 00:00N 30°04' W 094°02'0 0.0
2018-Jun-14 23:30N 30°04' W 094°02'0 0.0
2018-Jun-14 23:00N 30°04' W 094°02'0 0.0
2018-Jun-14 22:30N 30°04' W 094°02'0 0.0
2018-Jun-14 22:00N 30°04' W 094°02'0 0.0
2018-Jun-14 21:30N 30°04' W 094°02'0 0.0
2018-Jun-14 21:00N 30°04' W 094°02'0 0.0
2018-Jun-14 20:30N 30°04' W 094°02'0 0.0
2018-Jun-14 20:00N 30°04' W 094°02'0 0.0
2018-Jun-14 19:30N 30°04' W 094°02'0 0.0
2018-Jun-14 19:00N 30°04' W 094°02'0 0.0
2018-Jun-14 18:30N 30°04' W 094°02'0 0.0
2018-Jun-14 18:00N 30°04' W 094°02'0 0.0
2018-Jun-14 17:30N 30°04' W 094°02'0 0.0
2018-Jun-14 17:00N 30°04' W 094°02'0 0.0
2018-Jun-14 16:30N 30°04' W 094°02'0 0.0
2018-Jun-14 16:00N 30°04' W 094°02'0 0.0
2018-Jun-14 15:30N 30°04' W 094°02'0 0.0
2018-Jun-14 15:00N 30°04' W 094°02'0 0.0
2018-Jun-14 14:30N 30°04' W 094°02'0 0.0
2018-Jun-14 14:00N 30°04' W 094°02'0 0.0
2018-Jun-14 13:30N 30°04' W 094°02'0 0.0
2018-Jun-14 13:00N 30°04' W 094°02'0 0.0
2018-Jun-14 12:30N 30°04' W 094°02'0 0.0
2018-Jun-14 12:00N 30°04' W 094°02'0 0.0
2018-Jun-14 11:30N 30°04' W 094°02'0 0.0
2018-Jun-14 11:00N 30°04' W 094°02'0 0.0
2018-Jun-14 10:30N 30°04' W 094°02'0 0.0
2018-Jun-14 10:00N 30°04' W 094°02'0 0.0
2018-Jun-14 09:30N 30°04' W 094°02'0 0.0
2018-Jun-14 09:00N 30°04' W 094°02'0 0.0
2018-Jun-14 08:30N 30°04' W 094°02'0 0.0
2018-Jun-14 08:00N 30°04' W 094°02'0 0.0
2018-Jun-14 07:30N 30°04' W 094°02'0 0.0
2018-Jun-14 07:00N 30°04' W 094°02'0 0.0
2018-Jun-14 06:30N 30°04' W 094°02'0 0.0
2018-Jun-14 06:00N 30°04' W 094°02'0 0.0
2018-Jun-14 05:30N 30°04' W 094°02'0 0.0
2018-Jun-14 05:00N 30°04' W 094°02'0 0.0
2018-Jun-14 04:30N 30°04' W 094°02'0 0.0
2018-Jun-14 04:00N 30°04' W 094°02'0 0.0
2018-Jun-14 03:30N 30°04' W 094°02'0 0.0
2018-Jun-14 03:00N 30°04' W 094°02'0 0.0
2018-Jun-14 02:30N 30°04' W 094°02'0 0.0
2018-Jun-14 02:00N 30°04' W 094°02'0 0.0
2018-Jun-14 01:30N 30°04' W 094°02'0 0.0
2018-Jun-14 01:00N 30°04' W 094°02'0 0.0
2018-Jun-14 00:31N 30°04' W 094°02'1 2.7
2018-Jun-14 00:01N 30°05' W 094°04'1 1.5
2018-Jun-13 23:30N 30°05' W 094°04'3 6.4
2018-Jun-13 23:01N 30°02' W 094°02'3 5.5
2018-Jun-13 22:30N 30°01' W 093°59'3 5.8
2018-Jun-13 22:00N 29°60' W 093°56'4 7.6
2018-Jun-13 21:30N 29°59' W 093°52'4 7.7
2018-Jun-13 21:01N 29°55' W 093°53'4 8.8
2018-Jun-13 20:30N 29°52' W 093°56'3 6.6
2018-Jun-13 20:01N 29°48' W 093°57'4 8.8
2018-Jun-13 19:30N 29°45' W 093°54'5 9.2
2018-Jun-13 19:01N 29°42' W 093°50'612.2
2018-Jun-13 18:30N 29°36' W 093°48'713.0
2018-Jun-13 18:01N 29°31' W 093°43'612.0
2018-Jun-13 17:30N 29°26' W 093°40'4 7.6
2018-Jun-13 16:59N 29°22' W 093°40'6 5.3
2018-Jun-13 15:52N 29°16' W 093°42'0 0.0
2018-Jun-13 08:52N 29°16' W 093°42'0 0.0
2018-Jun-13 08:22N 29°16' W 093°42'0 0.0
2018-Jun-13 07:52N 29°16' W 093°42'0 0.0
2018-Jun-13 07:22N 29°16' W 093°42'0 0.0
2018-Jun-13 06:58N 29°16' W 093°42'0 0.0
2018-Jun-13 06:22N 29°16' W 093°42'0 0.0
2018-Jun-13 05:55N 29°16' W 093°42'0 0.0
2018-Jun-13 05:10N 29°16' W 093°42'0 0.0
2018-Jun-13 04:49N 29°16' W 093°42'0 0.0
2018-Jun-13 04:07N 29°16' W 093°42'0 0.0
2018-Jun-13 03:55N 29°16' W 093°42'0 0.0
2018-Jun-13 03:22N 29°16' W 093°42'0 0.0
2018-Jun-13 02:58N 29°16' W 093°42'0 0.0
2018-Jun-13 02:28N 29°16' W 093°42'0 0.0
2018-Jun-13 01:37N 29°16' W 093°42'0 0.0
2018-Jun-13 01:10N 29°16' W 093°42'0 0.0
2018-Jun-12 22:25N 29°16' W 093°42'0 0.0
2018-Jun-12 21:52N 29°16' W 093°42'0 0.0
2018-Jun-12 21:16N 29°16' W 093°42'0 0.0
2018-Jun-12 20:34N 29°16' W 093°42'0 0.1
2018-Jun-12 20:22N 29°16' W 093°42'0 0.0
2018-Jun-12 19:55N 29°16' W 093°42'0 0.0
2018-Jun-12 19:19N 29°16' W 093°42'0 0.0
2018-Jun-12 18:49N 29°16' W 093°42'0 0.0
2018-Jun-12 18:19N 29°16' W 093°42'0 0.0
2018-Jun-12 17:58N 29°16' W 093°42'0 0.0
2018-Jun-12 17:30N 29°16' W 093°42'1 2.0
2018-Jun-12 16:50N 29°16' W 093°41'2 6.0
2018-Jun-12 16:30N 29°14' W 093°40'3 6.7
2018-Jun-12 15:59N 29°10' W 093°40'811.4
2018-Jun-12 15:17N 29°03' W 093°36'512.7
2018-Jun-12 14:54N 28°59' W 093°32'512.8
2018-Jun-12 14:30N 28°55' W 093°28'612.9
2018-Jun-12 14:00N 28°50' W 093°24'813.0
2018-Jun-12 13:22N 28°43' W 093°19'  

Dump ship's entire track history